Hlavní strana
METAR-TAF:

METAR-TAF

Letiště :

Klagenfurt, Rakousko

zeměpisná šířka: 46-39N, zeměpisná délka: 014-20E, výška: 448 m

Aktuální stav počasí

Zpráva byla vytvořena před 35 minutami, v 16:50 UTC
Východní vítr 7 kt, proměnlivý mezi východoseverovýchodním a jihovýchodním
Teplota 4°C
Vlhkost vzduchu 52%
Tlak 1028 hPa
Viditelnost 10 km a více
Skoro jasno ve výšce 4500 ft
Oblačno až skoro zataženo ve výšce 9500 ft

METAR: LOWK 171650Z 10007KT 060V140 9999 FEW045 BKN095 04/M05 Q1028 NOSIG

Čas: 18:25 (17:25 UTC)

Předpověď počasí

Zpráva byla vytvořena před 6 hodinami a 10 minutami, v 11:15 UTC
Předpověď platná od 17 v 12 UTC do 18 v 12 UTC
Východní vítr 6 kt
Viditelnost 10 km a více
Skoro jasno ve výšce 4000 ft
Dočasný
od 17 v 22 UTC do 18 v 12 UTC
Oblačno až skoro zataženo ve výšce 4500 ft

TAF: LOWK 171115Z 1712/1812 10006KT 9999 FEW040 TX07/1713Z TNM00/1806Z TEMPO 1722/1812 BKN045

Stav a předpovědi počasí z více než 4 000 letišť (zprávy METAR a TAF).

Červené a žluté tečky na mapě představují dostupné meteorologické stanice.

Když kurzor umístíte na tečku, zobrazí se název stanice.

Pak kliknutím zobrazíte stav a předpověď počasí.

Chcete-li změnit mapu, kliknutím na zelené tlačítko se znaménkem +mapu přiblížíte, kliknutím na zelené tlačítko se znaménkem – mapu oddálíte a kliknutím na zelené šipky přejdete na sousední mapy.


METAR-TAF: